sensor_id;sensor_type;location;lat;lon;timestamp;temperature;humidity
152;DHT22;68;48.792;9.164;2023-03-16T00:00:31;1.20;23.00
152;DHT22;68;48.792;9.164;2023-03-16T00:02:58;1.20;23.00
152;DHT22;68;48.792;9.164;2023-03-16T00:05:25;1.20;21.50
152;DHT22;68;48.792;9.164;2023-03-16T00:07:52;1.10;21.80
152;DHT22;68;48.792;9.164;2023-03-16T00:10:18;1.20;20.10
152;DHT22;68;48.792;9.164;2023-03-16T00:12:53;1.10;20.30
152;DHT22;68;48.792;9.164;2023-03-16T00:15:20;1.10;20.20
152;DHT22;68;48.792;9.164;2023-03-16T00:17:47;1.20;19.00
152;DHT22;68;48.792;9.164;2023-03-16T00:20:15;1.10;19.50
152;DHT22;68;48.792;9.164;2023-03-16T00:22:42;1.20;19.40
152;DHT22;68;48.792;9.164;2023-03-16T00:25:11;1.20;19.70
152;DHT22;68;48.792;9.164;2023-03-16T00:27:39;1.10;20.10
152;DHT22;68;48.792;9.164;2023-03-16T00:30:08;1.10;20.20
152;DHT22;68;48.792;9.164;2023-03-16T00:32:36;1.10;20.00
152;DHT22;68;48.792;9.164;2023-03-16T00:35:04;1.20;19.90
152;DHT22;68;48.792;9.164;2023-03-16T00:37:32;1.20;20.10
152;DHT22;68;48.792;9.164;2023-03-16T00:39:59;1.20;20.30
152;DHT22;68;48.792;9.164;2023-03-16T00:42:27;1.20;20.50
152;DHT22;68;48.792;9.164;2023-03-16T00:44:54;1.20;20.40
152;DHT22;68;48.792;9.164;2023-03-16T00:47:25;1.20;20.90
152;DHT22;68;48.792;9.164;2023-03-16T00:49:53;1.20;21.90
152;DHT22;68;48.792;9.164;2023-03-16T00:52:20;1.20;23.00
152;DHT22;68;48.792;9.164;2023-03-16T00:54:49;1.40;24.90
152;DHT22;68;48.792;9.164;2023-03-16T00:57:18;1.40;28.00
152;DHT22;68;48.792;9.164;2023-03-16T00:59:46;1.20;29.40
152;DHT22;68;48.792;9.164;2023-03-16T01:02:14;1.10;30.00
152;DHT22;68;48.792;9.164;2023-03-16T01:04:42;1.00;29.60
152;DHT22;68;48.792;9.164;2023-03-16T01:07:11;1.00;29.40
152;DHT22;68;48.792;9.164;2023-03-16T01:09:38;1.00;29.70
152;DHT22;68;48.792;9.164;2023-03-16T01:12:07;1.00;28.90
152;DHT22;68;48.792;9.164;2023-03-16T01:14:35;1.00;28.30
152;DHT22;68;48.792;9.164;2023-03-16T01:17:04;1.00;28.20
152;DHT22;68;48.792;9.164;2023-03-16T01:19:32;1.00;27.60
152;DHT22;68;48.792;9.164;2023-03-16T01:22:01;1.00;26.80
152;DHT22;68;48.792;9.164;2023-03-16T01:24:29;1.00;26.80
152;DHT22;68;48.792;9.164;2023-03-16T01:26:56;1.00;26.70
152;DHT22;68;48.792;9.164;2023-03-16T01:29:23;1.00;25.90
152;DHT22;68;48.792;9.164;2023-03-16T01:31:50;1.00;25.60
152;DHT22;68;48.792;9.164;2023-03-16T01:34:17;1.00;25.30
152;DHT22;68;48.792;9.164;2023-03-16T01:36:46;1.10;26.50
152;DHT22;68;48.792;9.164;2023-03-16T01:39:15;1.10;27.60
152;DHT22;68;48.792;9.164;2023-03-16T01:41:42;1.00;28.40
152;DHT22;68;48.792;9.164;2023-03-16T01:44:11;1.00;29.10
152;DHT22;68;48.792;9.164;2023-03-16T01:46:38;1.20;30.50
152;DHT22;68;48.792;9.164;2023-03-16T01:49:08;1.30;31.40
152;DHT22;68;48.792;9.164;2023-03-16T01:51:40;1.80;34.70
152;DHT22;68;48.792;9.164;2023-03-16T01:54:14;1.60;39.60
152;DHT22;68;48.792;9.164;2023-03-16T01:56:49;1.50;41.10
152;DHT22;68;48.792;9.164;2023-03-16T01:59:19;1.20;43.80
152;DHT22;68;48.792;9.164;2023-03-16T02:01:47;1.10;43.30
152;DHT22;68;48.792;9.164;2023-03-16T02:04:23;1.10;42.50
152;DHT22;68;48.792;9.164;2023-03-16T02:06:54;1.00;41.80
152;DHT22;68;48.792;9.164;2023-03-16T02:09:24;1.00;41.00
152;DHT22;68;48.792;9.164;2023-03-16T02:11:52;1.00;39.60
152;DHT22;68;48.792;9.164;2023-03-16T02:14:19;1.20;39.90
152;DHT22;68;48.792;9.164;2023-03-16T02:16:46;1.50;41.90
152;DHT22;68;48.792;9.164;2023-03-16T02:19:18;1.30;44.50
152;DHT22;68;48.792;9.164;2023-03-16T02:21:53;1.50;45.40
152;DHT22;68;48.792;9.164;2023-03-16T02:24:27;1.50;48.00
152;DHT22;68;48.792;9.164;2023-03-16T02:26:57;1.30;49.40
152;DHT22;68;48.792;9.164;2023-03-16T02:32:24;1.30;48.80
152;DHT22;68;48.792;9.164;2023-03-16T02:34:52;1.20;48.30
152;DHT22;68;48.792;9.164;2023-03-16T02:37:20;1.20;47.00
152;DHT22;68;48.792;9.164;2023-03-16T02:39:47;1.10;47.20
152;DHT22;68;48.792;9.164;2023-03-16T02:42:16;1.00;46.90
152;DHT22;68;48.792;9.164;2023-03-16T02:44:47;1.40;46.90
152;DHT22;68;48.792;9.164;2023-03-16T02:47:22;1.20;50.40
152;DHT22;68;48.792;9.164;2023-03-16T02:49:51;1.10;49.90
152;DHT22;68;48.792;9.164;2023-03-16T02:52:18;1.20;48.80
152;DHT22;68;48.792;9.164;2023-03-16T02:54:45;1.10;50.40
152;DHT22;68;48.792;9.164;2023-03-16T02:57:11;1.40;50.10
152;DHT22;68;48.792;9.164;2023-03-16T02:59:38;1.30;53.10
152;DHT22;68;48.792;9.164;2023-03-16T03:02:06;1.10;53.60
152;DHT22;68;48.792;9.164;2023-03-16T03:04:32;1.40;53.00
152;DHT22;68;48.792;9.164;2023-03-16T03:07:00;1.20;55.90
152;DHT22;68;48.792;9.164;2023-03-16T03:09:29;1.00;55.50
152;DHT22;68;48.792;9.164;2023-03-16T03:11:57;1.10;52.50
152;DHT22;68;48.792;9.164;2023-03-16T03:14:24;1.00;52.60
152;DHT22;68;48.792;9.164;2023-03-16T03:16:53;0.90;50.10
152;DHT22;68;48.792;9.164;2023-03-16T03:19:20;0.90;47.90
152;DHT22;68;48.792;9.164;2023-03-16T03:21:47;0.80;46.30
152;DHT22;68;48.792;9.164;2023-03-16T03:24:15;0.80;44.80
152;DHT22;68;48.792;9.164;2023-03-16T03:26:42;0.70;42.80
152;DHT22;68;48.792;9.164;2023-03-16T03:29:09;0.90;42.10
152;DHT22;68;48.792;9.164;2023-03-16T03:31:37;0.90;43.70
152;DHT22;68;48.792;9.164;2023-03-16T03:34:03;1.00;45.40
152;DHT22;68;48.792;9.164;2023-03-16T03:36:31;1.10;46.30
152;DHT22;68;48.792;9.164;2023-03-16T03:38:58;1.00;49.00
152;DHT22;68;48.792;9.164;2023-03-16T03:41:26;1.00;50.00
152;DHT22;68;48.792;9.164;2023-03-16T03:43:52;1.10;51.00
152;DHT22;68;48.792;9.164;2023-03-16T03:46:19;1.00;51.60
152;DHT22;68;48.792;9.164;2023-03-16T03:48:46;0.90;51.70
152;DHT22;68;48.792;9.164;2023-03-16T03:51:13;0.90;51.60
152;DHT22;68;48.792;9.164;2023-03-16T03:53:39;1.20;53.10
152;DHT22;68;48.792;9.164;2023-03-16T03:56:06;1.40;53.90
152;DHT22;68;48.792;9.164;2023-03-16T03:58:35;1.50;56.60
152;DHT22;68;48.792;9.164;2023-03-16T04:01:02;1.40;59.50
152;DHT22;68;48.792;9.164;2023-03-16T04:03:29;1.50;60.40
152;DHT22;68;48.792;9.164;2023-03-16T04:05:55;1.60;62.90
152;DHT22;68;48.792;9.164;2023-03-16T04:08:22;1.50;64.40
152;DHT22;68;48.792;9.164;2023-03-16T04:10:49;1.50;64.90
152;DHT22;68;48.792;9.164;2023-03-16T04:13:15;1.40;67.20
152;DHT22;68;48.792;9.164;2023-03-16T04:15:44;1.30;66.80
152;DHT22;68;48.792;9.164;2023-03-16T04:18:11;1.10;66.70
152;DHT22;68;48.792;9.164;2023-03-16T04:20:38;1.00;64.40
152;DHT22;68;48.792;9.164;2023-03-16T04:23:05;0.90;64.00
152;DHT22;68;48.792;9.164;2023-03-16T04:25:31;0.90;61.70
152;DHT22;68;48.792;9.164;2023-03-16T04:27:59;0.80;61.10
152;DHT22;68;48.792;9.164;2023-03-16T04:30:26;0.90;59.00
152;DHT22;68;48.792;9.164;2023-03-16T04:32:56;1.10;59.10
152;DHT22;68;48.792;9.164;2023-03-16T04:35:23;1.10;59.10
152;DHT22;68;48.792;9.164;2023-03-16T04:37:50;1.00;58.60
152;DHT22;68;48.792;9.164;2023-03-16T04:40:16;1.10;57.50
152;DHT22;68;48.792;9.164;2023-03-16T04:42:44;1.30;59.00
152;DHT22;68;48.792;9.164;2023-03-16T04:45:12;1.40;60.50
152;DHT22;68;48.792;9.164;2023-03-16T04:47:39;1.20;62.80
152;DHT22;68;48.792;9.164;2023-03-16T04:50:09;1.00;62.50
152;DHT22;68;48.792;9.164;2023-03-16T04:52:36;1.20;60.70
152;DHT22;68;48.792;9.164;2023-03-16T04:55:04;1.30;64.40
152;DHT22;68;48.792;9.164;2023-03-16T04:57:31;1.00;65.40
152;DHT22;68;48.792;9.164;2023-03-16T04:59:59;1.00;63.70
152;DHT22;68;48.792;9.164;2023-03-16T05:02:26;1.00;61.80
152;DHT22;68;48.792;9.164;2023-03-16T05:04:53;1.00;61.50
152;DHT22;68;48.792;9.164;2023-03-16T05:10:25;1.00;61.70
152;DHT22;68;48.792;9.164;2023-03-16T05:12:52;1.10;62.40
152;DHT22;68;48.792;9.164;2023-03-16T05:15:19;1.20;62.80
152;DHT22;68;48.792;9.164;2023-03-16T05:17:46;1.10;63.70
152;DHT22;68;48.792;9.164;2023-03-16T05:20:13;1.30;62.50
152;DHT22;68;48.792;9.164;2023-03-16T05:22:41;1.40;64.40
152;DHT22;68;48.792;9.164;2023-03-16T05:25:08;1.20;66.60
152;DHT22;68;48.792;9.164;2023-03-16T05:27:40;1.10;65.30
152;DHT22;68;48.792;9.164;2023-03-16T05:30:08;1.00;65.30
152;DHT22;68;48.792;9.164;2023-03-16T05:32:36;1.30;63.70
152;DHT22;68;48.792;9.164;2023-03-16T05:35:03;1.40;65.20
152;DHT22;68;48.792;9.164;2023-03-16T05:37:29;1.20;68.50
152;DHT22;68;48.792;9.164;2023-03-16T05:39:56;0.90;65.90
152;DHT22;68;48.792;9.164;2023-03-16T05:42:23;0.90;62.50
152;DHT22;68;48.792;9.164;2023-03-16T05:44:52;1.00;60.70
152;DHT22;68;48.792;9.164;2023-03-16T05:47:19;1.30;62.10
152;DHT22;68;48.792;9.164;2023-03-16T05:49:46;1.20;64.50
152;DHT22;68;48.792;9.164;2023-03-16T05:52:13;1.20;63.50
152;DHT22;68;48.792;9.164;2023-03-16T05:54:40;1.20;63.40
152;DHT22;68;48.792;9.164;2023-03-16T05:57:07;1.20;64.70
152;DHT22;68;48.792;9.164;2023-03-16T05:59:34;1.20;66.00
152;DHT22;68;48.792;9.164;2023-03-16T06:02:03;1.00;65.80
152;DHT22;68;48.792;9.164;2023-03-16T06:04:29;0.90;62.40
152;DHT22;68;48.792;9.164;2023-03-16T06:06:56;0.90;58.90
152;DHT22;68;48.792;9.164;2023-03-16T06:09:23;0.80;57.80
152;DHT22;68;48.792;9.164;2023-03-16T06:11:49;0.80;56.20
152;DHT22;68;48.792;9.164;2023-03-16T06:14:16;0.70;55.20
152;DHT22;68;48.792;9.164;2023-03-16T06:16:43;0.70;54.20
152;DHT22;68;48.792;9.164;2023-03-16T06:19:11;0.90;54.00
152;DHT22;68;48.792;9.164;2023-03-16T06:21:38;0.90;52.80
152;DHT22;68;48.792;9.164;2023-03-16T06:24:05;0.90;52.40
152;DHT22;68;48.792;9.164;2023-03-16T06:26:33;1.00;52.20
152;DHT22;68;48.792;9.164;2023-03-16T06:29:00;1.00;53.00
152;DHT22;68;48.792;9.164;2023-03-16T06:31:27;1.10;54.00
152;DHT22;68;48.792;9.164;2023-03-16T06:33:54;1.20;54.80
152;DHT22;68;48.792;9.164;2023-03-16T06:36:22;1.30;56.30
152;DHT22;68;48.792;9.164;2023-03-16T06:38:48;1.40;58.70
152;DHT22;68;48.792;9.164;2023-03-16T06:41:16;1.60;59.70
152;DHT22;68;48.792;9.164;2023-03-16T06:43:43;1.50;61.80
152;DHT22;68;48.792;9.164;2023-03-16T06:46:09;1.60;63.80
152;DHT22;68;48.792;9.164;2023-03-16T06:48:36;1.70;65.40
152;DHT22;68;48.792;9.164;2023-03-16T06:51:03;1.80;68.20
152;DHT22;68;48.792;9.164;2023-03-16T06:53:33;2.10;70.80
152;DHT22;68;48.792;9.164;2023-03-16T06:56:00;1.90;74.90
152;DHT22;68;48.792;9.164;2023-03-16T06:58:26;1.90;75.30
152;DHT22;68;48.792;9.164;2023-03-16T07:00:53;2.00;75.90
152;DHT22;68;48.792;9.164;2023-03-16T07:03:20;2.10;76.90
152;DHT22;68;48.792;9.164;2023-03-16T07:05:47;2.00;79.50
152;DHT22;68;48.792;9.164;2023-03-16T07:08:13;1.90;78.60
152;DHT22;68;48.792;9.164;2023-03-16T07:10:41;2.10;78.80
152;DHT22;68;48.792;9.164;2023-03-16T07:13:08;1.90;78.00
152;DHT22;68;48.792;9.164;2023-03-16T07:15:35;2.10;74.80
152;DHT22;68;48.792;9.164;2023-03-16T07:18:02;2.00;75.30
152;DHT22;68;48.792;9.164;2023-03-16T07:20:29;1.90;74.40
152;DHT22;68;48.792;9.164;2023-03-16T07:22:57;2.10;70.80
152;DHT22;68;48.792;9.164;2023-03-16T07:25:24;2.30;72.30
152;DHT22;68;48.792;9.164;2023-03-16T07:27:52;2.50;76.60
152;DHT22;68;48.792;9.164;2023-03-16T07:30:19;2.60;76.60
152;DHT22;68;48.792;9.164;2023-03-16T07:32:45;2.80;81.00
152;DHT22;68;48.792;9.164;2023-03-16T07:35:12;2.80;81.20
152;DHT22;68;48.792;9.164;2023-03-16T07:37:39;3.00;84.30
152;DHT22;68;48.792;9.164;2023-03-16T07:40:07;2.90;87.10
152;DHT22;68;48.792;9.164;2023-03-16T07:42:34;2.80;86.60
152;DHT22;68;48.792;9.164;2023-03-16T07:45:03;2.70;87.20
152;DHT22;68;48.792;9.164;2023-03-16T07:47:30;2.60;85.50
152;DHT22;68;48.792;9.164;2023-03-16T07:49:58;2.60;84.00
152;DHT22;68;48.792;9.164;2023-03-16T07:52:25;2.60;81.90
152;DHT22;68;48.792;9.164;2023-03-16T07:54:53;2.90;82.20
152;DHT22;68;48.792;9.164;2023-03-16T07:57:20;3.00;84.70
152;DHT22;68;48.792;9.164;2023-03-16T07:59:46;3.20;88.40
152;DHT22;68;48.792;9.164;2023-03-16T08:02:17;3.50;91.60
152;DHT22;68;48.792;9.164;2023-03-16T08:04:44;3.60;95.90
152;DHT22;68;48.792;9.164;2023-03-16T08:07:13;3.50;96.10
152;DHT22;68;48.792;9.164;2023-03-16T08:09:40;3.90;95.80
152;DHT22;68;48.792;9.164;2023-03-16T08:12:08;3.90;96.60
152;DHT22;68;48.792;9.164;2023-03-16T08:14:36;3.90;96.50
152;DHT22;68;48.792;9.164;2023-03-16T08:17:04;3.90;97.30
152;DHT22;68;48.792;9.164;2023-03-16T08:19:33;4.00;96.90
152;DHT22;68;48.792;9.164;2023-03-16T08:22:00;4.20;97.80
152;DHT22;68;48.792;9.164;2023-03-16T08:24:27;4.50;97.60
152;DHT22;68;48.792;9.164;2023-03-16T08:26:54;4.40;95.80
152;DHT22;68;48.792;9.164;2023-03-16T08:29:22;4.40;96.40
152;DHT22;68;48.792;9.164;2023-03-16T08:31:49;4.50;96.80
152;DHT22;68;48.792;9.164;2023-03-16T08:34:16;4.80;96.60
152;DHT22;68;48.792;9.164;2023-03-16T08:36:44;4.90;95.70
152;DHT22;68;48.792;9.164;2023-03-16T08:39:11;4.90;94.80
152;DHT22;68;48.792;9.164;2023-03-16T08:41:38;5.00;94.70
152;DHT22;68;48.792;9.164;2023-03-16T08:44:05;5.10;92.40
152;DHT22;68;48.792;9.164;2023-03-16T08:46:33;5.40;92.90
152;DHT22;68;48.792;9.164;2023-03-16T08:49:00;5.40;92.80
152;DHT22;68;48.792;9.164;2023-03-16T08:51:27;5.70;92.90
152;DHT22;68;48.792;9.164;2023-03-16T08:53:55;5.60;89.60
152;DHT22;68;48.792;9.164;2023-03-16T08:56:22;5.60;90.80
152;DHT22;68;48.792;9.164;2023-03-16T08:58:49;5.70;90.40
152;DHT22;68;48.792;9.164;2023-03-16T09:01:17;5.80;90.90
152;DHT22;68;48.792;9.164;2023-03-16T09:03:44;5.80;89.30
152;DHT22;68;48.792;9.164;2023-03-16T09:06:17;5.90;88.10
152;DHT22;68;48.792;9.164;2023-03-16T09:08:44;5.90;88.70
152;DHT22;68;48.792;9.164;2023-03-16T09:11:15;6.00;87.40
152;DHT22;68;48.792;9.164;2023-03-16T09:13:42;6.20;87.70
152;DHT22;68;48.792;9.164;2023-03-16T09:16:11;6.20;86.50
152;DHT22;68;48.792;9.164;2023-03-16T09:18:40;6.30;85.30
152;DHT22;68;48.792;9.164;2023-03-16T09:21:08;6.30;85.90
152;DHT22;68;48.792;9.164;2023-03-16T09:23:37;6.60;86.50
152;DHT22;68;48.792;9.164;2023-03-16T09:26:06;6.90;85.30
152;DHT22;68;48.792;9.164;2023-03-16T09:28:36;7.00;85.10
152;DHT22;68;48.792;9.164;2023-03-16T09:31:05;7.20;84.00
152;DHT22;68;48.792;9.164;2023-03-16T09:33:33;7.20;83.90
152;DHT22;68;48.792;9.164;2023-03-16T09:36:00;7.30;83.30
152;DHT22;68;48.792;9.164;2023-03-16T09:38:27;7.40;83.00
152;DHT22;68;48.792;9.164;2023-03-16T09:40:59;7.30;83.70
152;DHT22;68;48.792;9.164;2023-03-16T09:43:57;7.40;82.50
152;DHT22;68;48.792;9.164;2023-03-16T09:46:31;7.10;83.70
152;DHT22;68;48.792;9.164;2023-03-16T09:49:00;7.30;84.30
152;DHT22;68;48.792;9.164;2023-03-16T09:51:36;7.50;82.00
152;DHT22;68;48.792;9.164;2023-03-16T09:54:12;7.70;80.80
152;DHT22;68;48.792;9.164;2023-03-16T09:56:42;7.90;80.10
152;DHT22;68;48.792;9.164;2023-03-16T09:59:13;8.10;80.10
152;DHT22;68;48.792;9.164;2023-03-16T10:01:49;8.20;79.20
152;DHT22;68;48.792;9.164;2023-03-16T10:04:28;8.00;77.80
152;DHT22;68;48.792;9.164;2023-03-16T10:07:03;8.30;78.90
152;DHT22;68;48.792;9.164;2023-03-16T10:09:36;8.40;77.70
152;DHT22;68;48.792;9.164;2023-03-16T10:12:06;8.20;76.50
152;DHT22;68;48.792;9.164;2023-03-16T10:14:43;8.40;76.50
152;DHT22;68;48.792;9.164;2023-03-16T10:17:14;8.50;76.30
152;DHT22;68;48.792;9.164;2023-03-16T10:19:47;8.70;74.90
152;DHT22;68;48.792;9.164;2023-03-16T10:22:20;8.60;76.50
152;DHT22;68;48.792;9.164;2023-03-16T10:24:55;8.80;76.10
152;DHT22;68;48.792;9.164;2023-03-16T10:27:27;8.80;74.00
152;DHT22;68;48.792;9.164;2023-03-16T10:29:55;8.80;75.30
152;DHT22;68;48.792;9.164;2023-03-16T10:32:23;9.00;76.10
152;DHT22;68;48.792;9.164;2023-03-16T10:34:57;9.10;73.30
152;DHT22;68;48.792;9.164;2023-03-16T10:37:29;9.10;73.80
152;DHT22;68;48.792;9.164;2023-03-16T10:39:57;8.90;73.20
152;DHT22;68;48.792;9.164;2023-03-16T10:42:25;9.20;73.50
152;DHT22;68;48.792;9.164;2023-03-16T10:44:57;9.30;73.90
152;DHT22;68;48.792;9.164;2023-03-16T10:47:29;9.60;74.20
152;DHT22;68;48.792;9.164;2023-03-16T10:49:56;9.90;72.70
152;DHT22;68;48.792;9.164;2023-03-16T10:52:33;9.90;71.50
152;DHT22;68;48.792;9.164;2023-03-16T10:55:06;10.00;71.70
152;DHT22;68;48.792;9.164;2023-03-16T10:57:36;10.30;73.00
152;DHT22;68;48.792;9.164;2023-03-16T11:00:12;9.90;69.10
152;DHT22;68;48.792;9.164;2023-03-16T11:02:46;9.50;70.70
152;DHT22;68;48.792;9.164;2023-03-16T11:05:44;9.60;73.10
152;DHT22;68;48.792;9.164;2023-03-16T11:08:51;9.90;73.00
152;DHT22;68;48.792;9.164;2023-03-16T11:11:29;10.50;68.00
152;DHT22;68;48.792;9.164;2023-03-16T11:13:58;11.10;68.40
152;DHT22;68;48.792;9.164;2023-03-16T11:16:29;12.00;63.70
152;DHT22;68;48.792;9.164;2023-03-16T11:18:59;12.40;64.60
152;DHT22;68;48.792;9.164;2023-03-16T11:21:37;13.10;63.40
152;DHT22;68;48.792;9.164;2023-03-16T11:24:14;13.50;60.20
152;DHT22;68;48.792;9.164;2023-03-16T11:26:43;14.70;56.90
152;DHT22;68;48.792;9.164;2023-03-16T11:29:18;14.90;55.80
152;DHT22;68;48.792;9.164;2023-03-16T11:31:50;15.30;55.40
152;DHT22;68;48.792;9.164;2023-03-16T11:34:23;15.20;56.00
152;DHT22;68;48.792;9.164;2023-03-16T11:36:53;16.00;53.30
152;DHT22;68;48.792;9.164;2023-03-16T11:39:35;16.40;50.80
152;DHT22;68;48.792;9.164;2023-03-16T11:42:19;15.30;54.30
152;DHT22;68;48.792;9.164;2023-03-16T11:44:53;15.60;55.20
152;DHT22;68;48.792;9.164;2023-03-16T11:50:29;15.80;54.60
152;DHT22;68;48.792;9.164;2023-03-16T11:53:02;15.90;53.90
152;DHT22;68;48.792;9.164;2023-03-16T11:55:38;15.90;54.70
152;DHT22;68;48.792;9.164;2023-03-16T11:58:27;15.60;55.60
152;DHT22;68;48.792;9.164;2023-03-16T12:01:03;16.10;55.00
152;DHT22;68;48.792;9.164;2023-03-16T12:03:57;14.20;58.00
152;DHT22;68;48.792;9.164;2023-03-16T12:06:37;15.30;59.90
152;DHT22;68;48.792;9.164;2023-03-16T12:09:29;16.90;51.90
152;DHT22;68;48.792;9.164;2023-03-16T12:12:02;12.20;62.40
152;DHT22;68;48.792;9.164;2023-03-16T12:14:35;12.30;63.10
152;DHT22;68;48.792;9.164;2023-03-16T12:17:04;13.00;62.60
152;DHT22;68;48.792;9.164;2023-03-16T12:19:39;15.00;59.20
152;DHT22;68;48.792;9.164;2023-03-16T12:22:14;16.00;54.70
152;DHT22;68;48.792;9.164;2023-03-16T12:24:44;16.60;54.40
152;DHT22;68;48.792;9.164;2023-03-16T12:27:14;14.60;54.50
152;DHT22;68;48.792;9.164;2023-03-16T12:29:55;12.70;60.20
152;DHT22;68;48.792;9.164;2023-03-16T12:32:32;13.20;62.40
152;DHT22;68;48.792;9.164;2023-03-16T12:35:07;12.90;59.60
152;DHT22;68;48.792;9.164;2023-03-16T12:37:41;11.70;62.60
152;DHT22;68;48.792;9.164;2023-03-16T12:40:23;12.20;62.20
152;DHT22;68;48.792;9.164;2023-03-16T12:43:04;13.30;60.50
152;DHT22;68;48.792;9.164;2023-03-16T12:45:35;13.40;59.00
152;DHT22;68;48.792;9.164;2023-03-16T12:48:12;14.00;58.90
152;DHT22;68;48.792;9.164;2023-03-16T12:50:50;14.30;58.20
152;DHT22;68;48.792;9.164;2023-03-16T12:53:42;13.80;56.10
152;DHT22;68;48.792;9.164;2023-03-16T12:56:11;13.50;59.40
152;DHT22;68;48.792;9.164;2023-03-16T12:58:42;14.10;58.40
152;DHT22;68;48.792;9.164;2023-03-16T13:01:10;13.90;58.70
152;DHT22;68;48.792;9.164;2023-03-16T13:03:38;13.40;59.70
152;DHT22;68;48.792;9.164;2023-03-16T13:06:16;14.00;59.00
152;DHT22;68;48.792;9.164;2023-03-16T13:08:47;14.10;57.60
152;DHT22;68;48.792;9.164;2023-03-16T13:11:16;14.00;55.60
152;DHT22;68;48.792;9.164;2023-03-16T13:13:51;14.20;55.50
152;DHT22;68;48.792;9.164;2023-03-16T13:16:26;13.20;56.90
152;DHT22;68;48.792;9.164;2023-03-16T13:18:55;12.30;58.80
152;DHT22;68;48.792;9.164;2023-03-16T13:21:34;12.80;60.00
152;DHT22;68;48.792;9.164;2023-03-16T13:24:24;12.80;59.30
152;DHT22;68;48.792;9.164;2023-03-16T13:26:56;13.20;61.00
152;DHT22;68;48.792;9.164;2023-03-16T13:29:26;12.40;59.70
152;DHT22;68;48.792;9.164;2023-03-16T13:31:55;12.60;60.30
152;DHT22;68;48.792;9.164;2023-03-16T13:34:27;12.70;61.00
152;DHT22;68;48.792;9.164;2023-03-16T13:36:58;12.60;61.20
152;DHT22;68;48.792;9.164;2023-03-16T13:39:28;13.10;60.80
152;DHT22;68;48.792;9.164;2023-03-16T13:41:56;13.00;60.40
152;DHT22;68;48.792;9.164;2023-03-16T13:44:24;12.70;60.90
152;DHT22;68;48.792;9.164;2023-03-16T13:46:51;12.80;61.30
152;DHT22;68;48.792;9.164;2023-03-16T13:49:18;13.10;61.50
152;DHT22;68;48.792;9.164;2023-03-16T13:51:45;13.50;59.10
152;DHT22;68;48.792;9.164;2023-03-16T13:54:23;12.70;58.10
152;DHT22;68;48.792;9.164;2023-03-16T13:56:52;12.70;59.90
152;DHT22;68;48.792;9.164;2023-03-16T13:59:21;12.80;59.20
152;DHT22;68;48.792;9.164;2023-03-16T14:01:54;13.20;59.80
152;DHT22;68;48.792;9.164;2023-03-16T14:04:23;13.10;60.40
152;DHT22;68;48.792;9.164;2023-03-16T14:06:52;12.70;60.90
152;DHT22;68;48.792;9.164;2023-03-16T14:09:24;13.00;59.80
152;DHT22;68;48.792;9.164;2023-03-16T14:11:53;12.70;60.70
152;DHT22;68;48.792;9.164;2023-03-16T14:14:24;12.70;61.80
152;DHT22;68;48.792;9.164;2023-03-16T14:16:52;12.90;58.50
152;DHT22;68;48.792;9.164;2023-03-16T14:19:21;13.10;60.10
152;DHT22;68;48.792;9.164;2023-03-16T14:21:49;13.30;58.50
152;DHT22;68;48.792;9.164;2023-03-16T14:24:25;13.40;59.10
152;DHT22;68;48.792;9.164;2023-03-16T14:26:55;12.50;58.60
152;DHT22;68;48.792;9.164;2023-03-16T14:29:26;12.30;59.00
152;DHT22;68;48.792;9.164;2023-03-16T14:31:54;12.40;61.30
152;DHT22;68;48.792;9.164;2023-03-16T14:34:27;12.40;58.90
152;DHT22;68;48.792;9.164;2023-03-16T14:37:05;12.60;60.10
152;DHT22;68;48.792;9.164;2023-03-16T14:39:33;13.00;58.80
152;DHT22;68;48.792;9.164;2023-03-16T14:42:02;13.20;57.90
152;DHT22;68;48.792;9.164;2023-03-16T14:44:30;13.10;58.90
152;DHT22;68;48.792;9.164;2023-03-16T14:46:59;13.20;59.20
152;DHT22;68;48.792;9.164;2023-03-16T14:49:28;13.30;57.30
152;DHT22;68;48.792;9.164;2023-03-16T14:51:58;13.50;56.60
152;DHT22;68;48.792;9.164;2023-03-16T14:54:27;13.60;56.40
152;DHT22;68;48.792;9.164;2023-03-16T14:56:59;13.50;58.50
152;DHT22;68;48.792;9.164;2023-03-16T14:59:27;13.30;55.60
152;DHT22;68;48.792;9.164;2023-03-16T15:01:54;12.70;56.40
152;DHT22;68;48.792;9.164;2023-03-16T15:04:25;12.70;57.30
152;DHT22;68;48.792;9.164;2023-03-16T15:06:53;12.60;58.90
152;DHT22;68;48.792;9.164;2023-03-16T15:09:31;12.70;56.60
152;DHT22;68;48.792;9.164;2023-03-16T15:12:00;12.80;55.70
152;DHT22;68;48.792;9.164;2023-03-16T15:14:27;13.00;55.60
152;DHT22;68;48.792;9.164;2023-03-16T15:17:11;13.00;54.20
152;DHT22;68;48.792;9.164;2023-03-16T15:19:38;13.10;52.30
152;DHT22;68;48.792;9.164;2023-03-16T15:22:05;13.10;52.90
152;DHT22;68;48.792;9.164;2023-03-16T15:24:33;13.10;54.40
152;DHT22;68;48.792;9.164;2023-03-16T15:27:01;13.30;55.80
152;DHT22;68;48.792;9.164;2023-03-16T15:29:28;13.10;57.30
152;DHT22;68;48.792;9.164;2023-03-16T15:31:55;12.60;60.70
152;DHT22;68;48.792;9.164;2023-03-16T15:34:21;12.80;59.80
152;DHT22;68;48.792;9.164;2023-03-16T15:36:48;12.80;57.00
152;DHT22;68;48.792;9.164;2023-03-16T15:39:21;12.70;54.70
152;DHT22;68;48.792;9.164;2023-03-16T15:41:49;12.70;55.10
152;DHT22;68;48.792;9.164;2023-03-16T15:44:17;12.40;55.30
152;DHT22;68;48.792;9.164;2023-03-16T15:46:44;12.50;53.60
152;DHT22;68;48.792;9.164;2023-03-16T15:49:11;12.70;53.60
152;DHT22;68;48.792;9.164;2023-03-16T15:51:38;12.90;54.50
152;DHT22;68;48.792;9.164;2023-03-16T15:54:07;12.90;55.40
152;DHT22;68;48.792;9.164;2023-03-16T15:56:36;12.70;55.30
152;DHT22;68;48.792;9.164;2023-03-16T15:59:05;12.70;53.60
152;DHT22;68;48.792;9.164;2023-03-16T16:01:39;12.90;54.30
152;DHT22;68;48.792;9.164;2023-03-16T16:04:12;12.70;55.10
152;DHT22;68;48.792;9.164;2023-03-16T16:06:40;12.60;54.10
152;DHT22;68;48.792;9.164;2023-03-16T16:09:06;12.50;54.00
152;DHT22;68;48.792;9.164;2023-03-16T16:11:33;12.40;53.40
152;DHT22;68;48.792;9.164;2023-03-16T16:14:00;12.60;53.80
152;DHT22;68;48.792;9.164;2023-03-16T16:16:29;12.60;54.20
152;DHT22;68;48.792;9.164;2023-03-16T16:18:59;12.50;54.40
152;DHT22;68;48.792;9.164;2023-03-16T16:21:27;12.40;54.50
152;DHT22;68;48.792;9.164;2023-03-16T16:23:56;12.40;54.50
152;DHT22;68;48.792;9.164;2023-03-16T16:26:28;12.20;54.90
152;DHT22;68;48.792;9.164;2023-03-16T16:28:56;12.30;55.20
152;DHT22;68;48.792;9.164;2023-03-16T16:31:25;12.50;55.90
152;DHT22;68;48.792;9.164;2023-03-16T16:33:53;12.40;55.30
152;DHT22;68;48.792;9.164;2023-03-16T16:36:21;12.40;55.00
152;DHT22;68;48.792;9.164;2023-03-16T16:38:49;12.40;55.60
152;DHT22;68;48.792;9.164;2023-03-16T16:41:27;12.20;56.20
152;DHT22;68;48.792;9.164;2023-03-16T16:43:55;12.20;56.10
152;DHT22;68;48.792;9.164;2023-03-16T16:46:23;12.20;57.20
152;DHT22;68;48.792;9.164;2023-03-16T16:48:52;12.40;57.60
152;DHT22;68;48.792;9.164;2023-03-16T16:51:22;12.20;57.50
152;DHT22;68;48.792;9.164;2023-03-16T16:53:50;12.20;57.60
152;DHT22;68;48.792;9.164;2023-03-16T16:56:19;12.20;58.10
152;DHT22;68;48.792;9.164;2023-03-16T16:58:50;12.20;58.40
152;DHT22;68;48.792;9.164;2023-03-16T17:01:22;12.10;58.40
152;DHT22;68;48.792;9.164;2023-03-16T17:03:50;12.20;59.20
152;DHT22;68;48.792;9.164;2023-03-16T17:06:18;12.10;58.70
152;DHT22;68;48.792;9.164;2023-03-16T17:08:47;11.90;59.50
152;DHT22;68;48.792;9.164;2023-03-16T17:11:18;11.90;60.50
152;DHT22;68;48.792;9.164;2023-03-16T17:13:46;11.90;59.90
152;DHT22;68;48.792;9.164;2023-03-16T17:16:14;11.50;60.80
152;DHT22;68;48.792;9.164;2023-03-16T17:18:42;11.30;62.30
152;DHT22;68;48.792;9.164;2023-03-16T17:21:11;11.20;63.30
152;DHT22;68;48.792;9.164;2023-03-16T17:23:39;11.40;63.30
152;DHT22;68;48.792;9.164;2023-03-16T17:26:11;11.40;63.40
152;DHT22;68;48.792;9.164;2023-03-16T17:28:42;11.30;63.70